createdAt,value
2022-12-15T00:02:36.536Z,-5.29
2022-12-15T00:05:23.916Z,-5.33
2022-12-15T00:08:12.826Z,-5.37
2022-12-15T00:10:59.574Z,-5.37
2022-12-15T00:13:46.243Z,-5.39
2022-12-15T00:16:33.210Z,-5.39
2022-12-15T00:19:19.789Z,-5.38
2022-12-15T00:22:06.674Z,-5.36
2022-12-15T00:24:54.139Z,-5.30
2022-12-15T00:27:41.248Z,-5.24
2022-12-15T00:30:29.867Z,-5.18
2022-12-15T00:33:16.791Z,-5.12
2022-12-15T00:36:03.621Z,-5.05
2022-12-15T00:38:44.439Z,-5.00
2022-12-15T00:41:17.903Z,-4.97
2022-12-15T00:43:46.566Z,-4.95
2022-12-15T00:46:33.830Z,-4.95
2022-12-15T00:49:03.477Z,-4.95
2022-12-15T00:51:50.404Z,-4.95
2022-12-15T00:54:37.339Z,-4.95
2022-12-15T00:57:24.331Z,-4.96
2022-12-15T01:00:11.254Z,-4.96
2022-12-15T01:02:58.243Z,-4.93
2022-12-15T01:05:45.356Z,-4.90
2022-12-15T01:08:32.223Z,-4.88
2022-12-15T01:11:19.820Z,-4.84
2022-12-15T01:14:08.323Z,-4.81
2022-12-15T01:16:55.155Z,-4.80
2022-12-15T01:19:42.101Z,-4.79
2022-12-15T01:22:10.523Z,-4.79
2022-12-15T01:24:38.716Z,-4.81
2022-12-15T01:27:06.936Z,-4.83
2022-12-15T01:29:35.222Z,-4.86
2022-12-15T01:32:03.387Z,-4.88
2022-12-15T01:34:31.721Z,-4.88
2022-12-15T01:37:00.006Z,-4.90
2022-12-15T01:39:51.380Z,-4.91
2022-12-15T01:42:19.781Z,-4.92
2022-12-15T01:44:51.354Z,-4.92
2022-12-15T01:47:24.941Z,-4.92
2022-12-15T01:49:54.627Z,-4.95
2022-12-15T01:52:22.692Z,-4.95
2022-12-15T01:54:55.719Z,-4.97
2022-12-15T01:57:31.739Z,-4.97
2022-12-15T02:00:02.736Z,-4.99
2022-12-15T02:03:08.185Z,-5.03
2022-12-15T02:05:37.248Z,-5.05
2022-12-15T02:08:07.306Z,-5.05
2022-12-15T02:10:45.355Z,-5.03
2022-12-15T02:13:25.656Z,-5.00
2022-12-15T02:16:19.028Z,-4.97
2022-12-15T02:19:09.234Z,-4.93
2022-12-15T02:22:02.853Z,-4.92
2022-12-15T02:24:46.002Z,-4.91
2022-12-15T02:28:13.905Z,-4.91
2022-12-15T02:31:09.826Z,-4.89
2022-12-15T02:33:45.172Z,-4.91
2022-12-15T02:36:29.226Z,-4.91
2022-12-15T02:38:57.687Z,-4.91
2022-12-15T02:41:53.159Z,-4.89
2022-12-15T02:44:30.714Z,-4.87
2022-12-15T02:47:16.901Z,-4.85
2022-12-15T02:50:12.910Z,-4.81
2022-12-15T02:52:50.112Z,-4.77
2022-12-15T02:55:55.839Z,-4.73
2022-12-15T02:58:42.449Z,-4.69
2022-12-15T03:01:22.340Z,-4.67
2022-12-15T03:03:52.044Z,-4.64
2022-12-15T03:06:20.500Z,-4.63
2022-12-15T03:08:48.637Z,-4.62
2022-12-15T03:11:17.312Z,-4.61
2022-12-15T03:13:45.438Z,-4.59
2022-12-15T03:16:13.815Z,-4.58
2022-12-15T03:18:44.911Z,-4.57
2022-12-15T03:21:13.449Z,-4.55
2022-12-15T03:23:41.797Z,-4.53
2022-12-15T03:26:10.071Z,-4.50
2022-12-15T03:28:38.246Z,-4.48
2022-12-15T03:31:06.477Z,-4.47
2022-12-15T03:33:35.258Z,-4.46
2022-12-15T03:36:03.761Z,-4.45
2022-12-15T03:38:31.999Z,-4.46
2022-12-15T03:41:00.158Z,-4.47
2022-12-15T03:43:28.943Z,-4.48
2022-12-15T03:45:58.057Z,-4.49
2022-12-15T03:48:26.469Z,-4.49
2022-12-15T03:50:55.289Z,-4.49
2022-12-15T03:53:23.466Z,-4.48
2022-12-15T03:55:51.881Z,-4.47
2022-12-15T03:58:19.976Z,-4.44
2022-12-15T04:00:48.681Z,-4.42
2022-12-15T04:03:16.963Z,-4.41
2022-12-15T04:05:45.205Z,-4.40
2022-12-15T04:08:13.488Z,-4.40
2022-12-15T04:10:43.636Z,-4.41
2022-12-15T04:13:12.010Z,-4.40
2022-12-15T04:15:41.039Z,-4.41
2022-12-15T04:18:10.997Z,-4.41
2022-12-15T04:20:40.271Z,-4.41
2022-12-15T04:23:08.606Z,-4.45
2022-12-15T04:25:56.570Z,-4.49
2022-12-15T04:28:43.233Z,-4.48
2022-12-15T04:31:45.997Z,-4.49
2022-12-15T04:34:36.652Z,-4.50
2022-12-15T04:37:26.467Z,-4.50
2022-12-15T04:40:14.077Z,-4.49
2022-12-15T04:43:05.746Z,-4.48
2022-12-15T04:45:52.620Z,-4.48
2022-12-15T04:48:39.262Z,-4.47
2022-12-15T04:51:26.458Z,-4.48
2022-12-15T04:54:13.342Z,-4.48
2022-12-15T04:57:00.282Z,-4.53
2022-12-15T04:59:47.156Z,-4.57
2022-12-15T05:02:34.006Z,-4.59
2022-12-15T05:05:23.879Z,-4.58
2022-12-15T05:08:10.959Z,-4.61
2022-12-15T05:10:57.490Z,-4.63
2022-12-15T05:13:44.964Z,-4.62
2022-12-15T05:16:31.572Z,-4.58
2022-12-15T05:19:18.528Z,-4.54
2022-12-15T05:22:05.801Z,-4.50
2022-12-15T05:24:52.776Z,-4.45
2022-12-15T05:27:39.533Z,-4.43
2022-12-15T05:30:27.039Z,-4.43
2022-12-15T05:32:55.371Z,-4.46
2022-12-15T05:35:23.681Z,-4.47
2022-12-15T05:37:51.918Z,-4.48
2022-12-15T05:40:20.175Z,-4.49
2022-12-15T05:42:49.935Z,-4.49
2022-12-15T05:45:18.634Z,-4.48
2022-12-15T05:47:51.652Z,-4.48
2022-12-15T05:50:20.382Z,-4.47
2022-12-15T05:52:51.629Z,-4.47
2022-12-15T05:55:19.844Z,-4.44
2022-12-15T05:57:55.076Z,-4.43
2022-12-15T06:00:23.470Z,-4.44
2022-12-15T06:02:51.610Z,-4.45
2022-12-15T06:05:20.190Z,-4.49
2022-12-15T06:07:48.496Z,-4.51
2022-12-15T06:10:16.512Z,-4.51
2022-12-15T06:12:44.776Z,-4.52
2022-12-15T06:15:13.089Z,-4.51
2022-12-15T06:17:41.244Z,-4.49
2022-12-15T06:20:09.816Z,-4.45
2022-12-15T06:22:38.358Z,-4.42
2022-12-15T06:25:06.859Z,-4.41
2022-12-15T06:27:37.058Z,-4.40
2022-12-15T06:30:06.111Z,-4.38
2022-12-15T06:32:35.909Z,-4.36
2022-12-15T06:35:04.561Z,-4.36
2022-12-15T06:37:32.926Z,-4.37
2022-12-15T06:40:01.001Z,-4.39
2022-12-15T06:42:29.270Z,-4.40
2022-12-15T06:44:57.439Z,-4.41
2022-12-15T06:47:25.518Z,-4.42
2022-12-15T06:49:54.138Z,-4.44
2022-12-15T06:52:22.426Z,-4.43
2022-12-15T06:54:50.633Z,-4.41
2022-12-15T06:57:18.850Z,-4.42
2022-12-15T06:59:47.270Z,-4.42
2022-12-15T07:02:17.381Z,-4.41
2022-12-15T07:04:46.820Z,-4.39
2022-12-15T07:07:15.393Z,-4.39
2022-12-15T07:09:43.527Z,-4.37
2022-12-15T07:12:12.775Z,-4.36
2022-12-15T07:14:41.150Z,-4.35
2022-12-15T07:17:11.218Z,-4.32
2022-12-15T07:19:39.488Z,-4.32
2022-12-15T07:22:07.727Z,-4.32
2022-12-15T07:24:35.814Z,-4.31
2022-12-15T07:27:04.118Z,-4.33
2022-12-15T07:29:32.275Z,-4.34
2022-12-15T07:32:02.018Z,-4.32
2022-12-15T07:34:30.341Z,-4.29
2022-12-15T07:36:59.425Z,-4.21
2022-12-15T07:39:27.849Z,-4.16
2022-12-15T07:41:56.125Z,-4.14
2022-12-15T07:44:24.563Z,-4.09
2022-12-15T07:46:52.705Z,-4.06
2022-12-15T07:49:21.669Z,-4.04
2022-12-15T07:51:49.967Z,-4.06
2022-12-15T07:54:18.216Z,-4.08
2022-12-15T07:56:50.379Z,-4.10
2022-12-15T07:59:19.901Z,-4.08
2022-12-15T08:01:48.295Z,-4.06
2022-12-15T08:04:16.684Z,-4.05
2022-12-15T08:06:46.016Z,-4.04
2022-12-15T08:09:14.172Z,-4.02
2022-12-15T08:11:43.233Z,-3.97
2022-12-15T08:14:16.968Z,-3.92
2022-12-15T08:16:46.087Z,-3.88
2022-12-15T08:19:15.554Z,-3.85
2022-12-15T08:21:48.471Z,-3.83
2022-12-15T08:24:17.486Z,-3.78
2022-12-15T08:26:49.950Z,-3.76
2022-12-15T08:32:07.728Z,-3.76
2022-12-15T08:34:36.037Z,-3.75
2022-12-15T08:37:04.374Z,-3.72
2022-12-15T08:39:32.493Z,-3.68
2022-12-15T08:42:01.020Z,-3.63
2022-12-15T08:44:29.183Z,-3.58
2022-12-15T08:46:57.249Z,-3.53
2022-12-15T08:49:26.065Z,-3.49
2022-12-15T08:51:54.176Z,-3.45
2022-12-15T08:54:22.337Z,-3.42
2022-12-15T08:56:50.946Z,-3.38
2022-12-15T08:59:19.531Z,-3.36
2022-12-15T09:01:48.212Z,-3.33
2022-12-15T09:04:18.106Z,-3.34
2022-12-15T09:06:50.612Z,-3.34
2022-12-15T09:09:19.987Z,-3.34
2022-12-15T09:11:48.706Z,-3.31
2022-12-15T09:14:18.973Z,-3.26
2022-12-15T09:16:50.499Z,-3.23
2022-12-15T09:19:19.326Z,-3.18
2022-12-15T09:21:48.367Z,-3.16
2022-12-15T09:24:26.084Z,-3.17
2022-12-15T09:27:00.679Z,-3.19
2022-12-15T09:29:29.177Z,-3.21
2022-12-15T09:31:57.338Z,-3.22
2022-12-15T09:34:27.099Z,-3.23
2022-12-15T09:36:55.676Z,-3.23
2022-12-15T09:39:23.809Z,-3.22
2022-12-15T09:41:55.869Z,-3.18
2022-12-15T09:44:26.246Z,-3.16
2022-12-15T09:47:12.432Z,-3.12
2022-12-15T09:49:49.970Z,-3.09
2022-12-15T09:52:22.716Z,-3.06
2022-12-15T09:54:51.388Z,-3.01
2022-12-15T09:57:23.883Z,-2.95
2022-12-15T10:00:06.435Z,-2.91
2022-12-15T10:03:15.112Z,-2.87
2022-12-15T10:06:21.081Z,-2.84
2022-12-15T10:09:00.687Z,-2.79
2022-12-15T10:11:34.808Z,-2.79
2022-12-15T10:14:11.769Z,-2.76
2022-12-15T10:16:47.908Z,-2.71
2022-12-15T10:19:37.053Z,-2.65
2022-12-15T10:22:05.625Z,-2.60
2022-12-15T10:27:56.902Z,-2.49
2022-12-15T10:30:25.353Z,-2.46
2022-12-15T10:33:09.524Z,-2.47
2022-12-15T10:35:39.807Z,-2.47
2022-12-15T10:38:21.395Z,-2.48
2022-12-15T10:40:59.446Z,-2.51
2022-12-15T10:43:39.714Z,-2.58
2022-12-15T10:46:11.110Z,-2.61
2022-12-15T10:48:41.384Z,-2.66
2022-12-15T10:51:15.688Z,-2.70
2022-12-15T10:53:51.377Z,-2.69
2022-12-15T10:56:32.363Z,-2.68
2022-12-15T10:59:21.398Z,-2.62
2022-12-15T11:01:50.812Z,-2.58
2022-12-15T11:04:31.502Z,-2.58
2022-12-15T11:07:02.720Z,-2.54
2022-12-15T11:09:39.313Z,-2.50
2022-12-15T11:12:37.870Z,-2.48
2022-12-15T11:15:32.521Z,-2.48
2022-12-15T11:18:29.495Z,-2.48
2022-12-15T11:21:02.931Z,-2.49
2022-12-15T11:23:52.257Z,-2.50
2022-12-15T11:26:26.690Z,-2.44
2022-12-15T11:29:01.381Z,-2.41
2022-12-15T11:31:38.618Z,-2.42
2022-12-15T11:34:31.153Z,-2.40
2022-12-15T11:37:10.511Z,-2.38
2022-12-15T11:39:44.264Z,-2.34
2022-12-15T11:42:13.911Z,-2.33
2022-12-15T11:44:58.775Z,-2.32
2022-12-15T11:47:30.035Z,-2.33
2022-12-15T11:50:08.806Z,-2.32
2022-12-15T11:53:09.958Z,-2.34
2022-12-15T11:56:08.548Z,-2.35
2022-12-15T11:59:04.962Z,-2.39
2022-12-15T12:01:46.974Z,-2.37
2022-12-15T12:04:26.261Z,-2.37
2022-12-15T12:07:16.422Z,-2.39
2022-12-15T12:10:18.960Z,-2.41
2022-12-15T12:12:57.077Z,-2.43
2022-12-15T12:15:25.577Z,-2.44
2022-12-15T12:17:58.944Z,-2.47
2022-12-15T12:20:40.056Z,-2.54
2022-12-15T12:23:24.314Z,-2.57
2022-12-15T12:26:11.688Z,-2.52
2022-12-15T12:29:00.183Z,-2.46
2022-12-15T12:31:52.201Z,-2.46
2022-12-15T12:34:29.585Z,-2.44
2022-12-15T12:37:28.331Z,-2.37
2022-12-15T12:40:02.534Z,-2.31
2022-12-15T12:42:49.613Z,-2.30
2022-12-15T12:45:20.252Z,-2.31
2022-12-15T12:47:53.389Z,-2.31
2022-12-15T12:50:25.925Z,-2.33
2022-12-15T12:53:03.466Z,-2.37
2022-12-15T12:55:41.301Z,-2.38
2022-12-15T12:58:42.774Z,-2.38
2022-12-15T13:01:10.917Z,-2.41
2022-12-15T13:03:41.713Z,-2.47
2022-12-15T13:06:41.691Z,-2.52
2022-12-15T13:09:21.748Z,-2.59
2022-12-15T13:11:51.322Z,-2.64
2022-12-15T13:14:36.409Z,-2.67
2022-12-15T13:17:27.225Z,-2.65
2022-12-15T13:19:58.606Z,-2.65
2022-12-15T13:22:30.286Z,-2.68
2022-12-15T13:24:58.603Z,-2.72
2022-12-15T13:27:38.537Z,-2.72
2022-12-15T13:30:09.333Z,-2.70
2022-12-15T13:32:55.608Z,-2.67
2022-12-15T13:35:31.442Z,-2.70
2022-12-15T13:38:03.905Z,-2.71
2022-12-15T13:40:51.910Z,-2.76
2022-12-15T13:43:32.394Z,-2.77
2022-12-15T13:46:33.482Z,-2.79
2022-12-15T13:49:27.744Z,-2.81
2022-12-15T13:52:03.432Z,-2.83
2022-12-15T13:54:35.744Z,-2.86
2022-12-15T13:57:14.473Z,-2.88
2022-12-15T13:59:49.459Z,-2.93
2022-12-15T14:02:29.682Z,-2.96
2022-12-15T14:05:22.811Z,-2.97
2022-12-15T14:07:58.284Z,-2.96
2022-12-15T14:10:33.549Z,-2.92
2022-12-15T14:13:16.171Z,-2.92
2022-12-15T14:15:52.602Z,-2.92
2022-12-15T14:18:33.320Z,-3.01
2022-12-15T14:21:06.526Z,-3.10
2022-12-15T14:24:11.426Z,-3.13
2022-12-15T14:26:33.762Z,-3.21
2022-12-15T14:29:05.663Z,-3.25
2022-12-15T14:31:37.330Z,-3.27
2022-12-15T14:34:30.577Z,-3.28
2022-12-15T14:37:03.581Z,-3.38
2022-12-15T14:39:45.047Z,-3.46
2022-12-15T14:42:23.812Z,-3.48
2022-12-15T14:44:57.690Z,-3.46
2022-12-15T14:47:34.733Z,-3.44
2022-12-15T14:50:09.663Z,-3.40
2022-12-15T14:52:42.071Z,-3.37
2022-12-15T14:55:32.303Z,-3.33
2022-12-15T14:58:01.613Z,-3.30
2022-12-15T15:00:34.035Z,-3.31
2022-12-15T15:03:25.519Z,-3.34
2022-12-15T15:05:57.578Z,-3.34
2022-12-15T15:08:32.884Z,-3.34
2022-12-15T15:11:19.726Z,-3.34
2022-12-15T15:13:48.409Z,-3.34
2022-12-15T15:16:19.314Z,-3.33
2022-12-15T15:18:53.270Z,-3.30
2022-12-15T15:21:25.385Z,-3.27
2022-12-15T15:24:11.932Z,-3.23
2022-12-15T15:26:40.463Z,-3.18
2022-12-15T15:29:32.546Z,-3.13
2022-12-15T15:32:22.688Z,-3.08
2022-12-15T15:34:51.395Z,-3.06
2022-12-15T15:37:29.351Z,-3.06
2022-12-15T15:39:57.451Z,-3.01
2022-12-15T15:42:32.272Z,-3.01
2022-12-15T15:45:01.427Z,-3.04
2022-12-15T15:47:29.715Z,-3.10
2022-12-15T15:49:59.828Z,-3.13
2022-12-15T15:52:30.000Z,-3.19
2022-12-15T15:54:59.396Z,-3.26
2022-12-15T15:57:27.494Z,-3.33
2022-12-15T15:59:56.043Z,-3.37
2022-12-15T16:02:24.411Z,-3.43
2022-12-15T16:04:52.639Z,-3.50
2022-12-15T16:07:27.915Z,-3.57
2022-12-15T16:09:56.925Z,-3.62
2022-12-15T16:12:36.480Z,-3.73
2022-12-15T16:15:17.306Z,-3.84
2022-12-15T16:17:46.971Z,-3.94
2022-12-15T16:20:18.302Z,-4.04
2022-12-15T16:22:51.445Z,-4.13
2022-12-15T16:25:25.706Z,-4.25
2022-12-15T16:27:54.298Z,-4.37
2022-12-15T16:30:26.036Z,-4.48
2022-12-15T16:32:56.321Z,-4.60
2022-12-15T16:35:26.385Z,-4.74
2022-12-15T16:37:54.937Z,-4.88
2022-12-15T16:40:26.025Z,-4.99
2022-12-15T16:42:58.350Z,-5.08
2022-12-15T16:45:29.073Z,-5.21
2022-12-15T16:47:58.246Z,-5.31
2022-12-15T16:50:38.399Z,-5.40
2022-12-15T16:53:09.931Z,-5.53
2022-12-15T16:55:40.053Z,-5.65
2022-12-15T16:58:15.738Z,-5.72
2022-12-15T17:00:44.958Z,-5.77
2022-12-15T17:03:18.763Z,-5.82
2022-12-15T17:05:52.431Z,-5.88
2022-12-15T17:08:29.181Z,-5.95
2022-12-15T17:10:57.687Z,-6.03
2022-12-15T17:13:40.515Z,-6.10
2022-12-15T17:16:14.381Z,-6.20
2022-12-15T17:18:44.609Z,-6.28
2022-12-15T17:21:35.482Z,-6.39
2022-12-15T17:24:12.570Z,-6.48
2022-12-15T17:26:42.401Z,-6.55
2022-12-15T17:29:20.287Z,-6.61
2022-12-15T17:31:48.649Z,-6.66
2022-12-15T17:34:27.921Z,-6.69
2022-12-15T17:37:02.361Z,-6.70
2022-12-15T17:39:32.640Z,-6.71
2022-12-15T17:42:02.067Z,-6.72
2022-12-15T17:44:36.224Z,-6.75
2022-12-15T17:47:06.955Z,-6.82
2022-12-15T17:49:38.368Z,-6.95
2022-12-15T17:52:29.293Z,-7.05
2022-12-15T17:54:57.941Z,-7.12
2022-12-15T17:57:26.313Z,-7.18
2022-12-15T17:59:54.389Z,-7.21
2022-12-15T18:02:23.038Z,-7.16
2022-12-15T18:04:51.630Z,-7.12
2022-12-15T18:07:22.056Z,-7.11
2022-12-15T18:09:52.265Z,-7.09
2022-12-15T18:12:26.889Z,-7.07
2022-12-15T18:14:56.908Z,-7.07
2022-12-15T18:17:25.321Z,-7.08
2022-12-15T18:19:53.535Z,-7.14
2022-12-15T18:22:24.960Z,-7.19
2022-12-15T18:24:54.596Z,-7.19
2022-12-15T18:27:25.909Z,-7.15
2022-12-15T18:29:54.562Z,-7.14
2022-12-15T18:32:25.652Z,-7.18
2022-12-15T18:34:55.106Z,-7.22
2022-12-15T18:37:25.242Z,-7.23
2022-12-15T18:39:54.228Z,-7.24
2022-12-15T18:42:24.597Z,-7.23
2022-12-15T18:44:53.524Z,-7.27
2022-12-15T18:47:23.758Z,-7.29
2022-12-15T18:49:52.617Z,-7.29
2022-12-15T18:52:23.287Z,-7.32
2022-12-15T18:54:54.007Z,-7.30
2022-12-15T18:57:30.092Z,-7.30
2022-12-15T19:00:01.984Z,-7.32
2022-12-15T19:02:33.525Z,-7.27
2022-12-15T19:05:01.902Z,-7.24
2022-12-15T19:07:30.483Z,-7.21
2022-12-15T19:09:59.033Z,-7.18
2022-12-15T19:12:27.194Z,-7.18
2022-12-15T19:14:55.558Z,-7.21
2022-12-15T19:17:43.279Z,-7.24
2022-12-15T19:20:38.292Z,-7.31
2022-12-15T19:23:07.226Z,-7.33
2022-12-15T19:25:35.638Z,-7.34
2022-12-15T19:28:04.363Z,-7.40
2022-12-15T19:30:38.574Z,-7.47
2022-12-15T19:33:08.473Z,-7.54
2022-12-15T19:35:38.252Z,-7.55
2022-12-15T19:38:07.880Z,-7.54
2022-12-15T19:40:37.355Z,-7.59
2022-12-15T19:43:05.754Z,-7.54
2022-12-15T19:45:33.940Z,-7.52
2022-12-15T19:48:02.191Z,-7.53
2022-12-15T19:50:36.947Z,-7.59
2022-12-15T19:53:27.487Z,-7.62
2022-12-15T19:55:58.861Z,-7.57
2022-12-15T19:58:32.710Z,-7.51
2022-12-15T20:01:05.298Z,-7.42
2022-12-15T20:03:37.795Z,-7.31
2022-12-15T20:06:14.521Z,-7.19
2022-12-15T20:08:45.957Z,-7.06
2022-12-15T20:11:30.323Z,-6.92
2022-12-15T20:13:59.042Z,-6.80
2022-12-15T20:16:27.973Z,-6.71
2022-12-15T20:18:56.224Z,-6.60
2022-12-15T20:21:31.684Z,-6.54
2022-12-15T20:24:05.370Z,-6.47
2022-12-15T20:26:34.759Z,-6.41
2022-12-15T20:29:03.053Z,-6.35
2022-12-15T20:31:31.498Z,-6.31
2022-12-15T20:33:59.733Z,-6.26
2022-12-15T20:36:30.579Z,-6.23
2022-12-15T20:38:58.703Z,-6.18
2022-12-15T20:41:29.465Z,-6.16
2022-12-15T20:43:58.905Z,-6.10
2022-12-15T20:46:33.437Z,-6.09
2022-12-15T20:49:02.288Z,-6.10
2022-12-15T20:51:34.739Z,-6.10
2022-12-15T20:54:02.989Z,-6.09
2022-12-15T20:56:31.163Z,-6.11
2022-12-15T20:58:59.611Z,-6.11
2022-12-15T21:01:33.583Z,-6.10
2022-12-15T21:04:10.556Z,-6.08
2022-12-15T21:06:38.968Z,-6.06
2022-12-15T21:09:13.510Z,-6.04
2022-12-15T21:11:41.860Z,-6.03
2022-12-15T21:14:17.547Z,-6.03
2022-12-15T21:16:46.037Z,-6.02
2022-12-15T21:19:23.263Z,-6.04
2022-12-15T21:21:54.897Z,-6.04
2022-12-15T21:24:28.639Z,-6.06
2022-12-15T21:26:56.870Z,-6.13
2022-12-15T21:29:27.887Z,-6.18
2022-12-15T21:31:55.899Z,-6.22
2022-12-15T21:34:24.045Z,-6.29
2022-12-15T21:36:55.305Z,-6.34
2022-12-15T21:39:30.154Z,-6.38
2022-12-15T21:42:13.227Z,-6.43
2022-12-15T21:44:41.822Z,-6.45
2022-12-15T21:47:23.996Z,-6.47
2022-12-15T21:49:53.029Z,-6.50
2022-12-15T21:52:25.688Z,-6.52
2022-12-15T21:54:53.696Z,-6.53
2022-12-15T21:57:23.039Z,-6.52
2022-12-15T21:59:51.084Z,-6.51
2022-12-15T22:02:26.729Z,-6.48
2022-12-15T22:04:55.719Z,-6.45
2022-12-15T22:07:23.962Z,-6.40
2022-12-15T22:09:52.198Z,-6.36
2022-12-15T22:12:24.076Z,-6.33
2022-12-15T22:14:52.259Z,-6.31
2022-12-15T22:17:22.435Z,-6.31
2022-12-15T22:19:50.762Z,-6.28
2022-12-15T22:22:18.972Z,-6.27
2022-12-15T22:24:48.274Z,-6.24
2022-12-15T22:27:22.243Z,-6.21
2022-12-15T22:29:50.641Z,-6.18
2022-12-15T22:32:18.725Z,-6.18
2022-12-15T22:34:46.791Z,-6.29
2022-12-15T22:37:15.893Z,-6.43
2022-12-15T22:39:43.981Z,-6.52
2022-12-15T22:42:16.759Z,-6.56
2022-12-15T22:44:45.495Z,-6.52
2022-12-15T22:47:13.682Z,-6.55
2022-12-15T22:49:42.289Z,-6.58
2022-12-15T22:52:19.047Z,-6.56
2022-12-15T22:54:47.872Z,-6.49
2022-12-15T22:57:28.601Z,-6.45
2022-12-15T23:00:04.131Z,-6.44
2022-12-15T23:02:36.427Z,-6.46
2022-12-15T23:05:06.037Z,-6.44
2022-12-15T23:07:35.641Z,-6.41
2022-12-15T23:10:23.507Z,-6.34
2022-12-15T23:12:54.513Z,-6.31
2022-12-15T23:15:41.902Z,-6.30
2022-12-15T23:18:10.982Z,-6.32
2022-12-15T23:20:39.213Z,-6.32
2022-12-15T23:23:08.418Z,-6.32
2022-12-15T23:25:36.709Z,-6.30
2022-12-15T23:28:05.437Z,-6.27
2022-12-15T23:30:33.599Z,-6.24
2022-12-15T23:33:01.989Z,-6.26
2022-12-15T23:35:30.047Z,-6.26
2022-12-15T23:37:58.716Z,-6.24
2022-12-15T23:40:27.094Z,-6.22
2022-12-15T23:42:55.581Z,-6.19
2022-12-15T23:45:23.749Z,-6.16
2022-12-15T23:47:52.001Z,-6.14
2022-12-15T23:50:22.259Z,-6.15
2022-12-15T23:52:51.461Z,-6.16
2022-12-15T23:55:20.393Z,-6.21
2022-12-15T23:57:48.595Z,-6.28
